createdAt,value
2023-08-29T00:00:53.868Z,97428.25
2023-08-29T00:03:25.693Z,97436.34
2023-08-29T00:06:01.764Z,97439.59
2023-08-29T00:08:34.037Z,97433.63
2023-08-29T00:11:06.343Z,97428.53
2023-08-29T00:13:36.206Z,97436.63
2023-08-29T00:16:07.113Z,97447.69
2023-08-29T00:18:34.789Z,97443.63
2023-08-29T00:21:03.455Z,97430.38
2023-08-29T00:23:31.650Z,97418.53
2023-08-29T00:25:59.593Z,97432.84
2023-08-29T00:28:27.311Z,97434.44
2023-08-29T00:31:00.410Z,97436.88
2023-08-29T00:33:28.623Z,97443.63
2023-08-29T00:35:59.172Z,97441.75
2023-08-29T00:38:30.842Z,97434.72
2023-08-29T00:41:00.665Z,97431.75
2023-08-29T00:43:30.669Z,97434.72
2023-08-29T00:46:02.816Z,97434.19
2023-08-29T00:48:33.287Z,97428.25
2023-08-29T00:51:05.835Z,97443.38
2023-08-29T00:53:38.473Z,97435.81
2023-08-29T00:56:07.302Z,97450.91
2023-08-29T00:58:37.314Z,97448.47
2023-08-29T01:01:09.019Z,97442.00
2023-08-29T01:03:41.071Z,97436.06
2023-08-29T01:06:13.586Z,97431.22
2023-08-29T01:08:45.769Z,97428.78
2023-08-29T01:11:39.810Z,97424.19
2023-08-29T01:14:10.298Z,97443.06
2023-08-29T01:16:44.368Z,97433.34
2023-08-29T01:19:18.287Z,97433.63
2023-08-29T01:21:56.621Z,97450.91
2023-08-29T01:24:31.477Z,97444.94
2023-08-29T01:27:02.165Z,97441.44
2023-08-29T01:29:33.365Z,97437.69
2023-08-29T01:32:03.172Z,97428.75
2023-08-29T01:34:31.009Z,97418.22
2023-08-29T01:37:00.026Z,97421.19
2023-08-29T01:39:28.865Z,97418.19
2023-08-29T01:41:56.842Z,97420.66
2023-08-29T01:44:33.543Z,97417.34
2023-08-29T01:47:03.948Z,97413.34
2023-08-29T01:49:34.626Z,97401.19
2023-08-29T01:52:05.129Z,97403.31
2023-08-29T01:54:38.340Z,97410.06
2023-08-29T01:57:12.755Z,97406.28
2023-08-29T01:59:44.918Z,97410.31
2023-08-29T02:02:16.828Z,97401.41
2023-08-29T02:04:47.707Z,97402.44
2023-08-29T02:07:23.173Z,97393.84
2023-08-29T02:09:53.333Z,97403.28
2023-08-29T02:12:22.513Z,97400.09
2023-08-29T02:14:50.644Z,97400.03
2023-08-29T02:17:19.624Z,97402.13
2023-08-29T02:19:49.097Z,97393.81
2023-08-29T02:22:21.487Z,97384.94
2023-08-29T02:24:51.477Z,97381.75
2023-08-29T02:27:22.589Z,97386.44
2023-08-29T02:29:53.973Z,97386.75
2023-08-29T02:32:22.992Z,97389.44
2023-08-29T02:34:57.212Z,97389.47
2023-08-29T02:37:29.055Z,97392.38
2023-08-29T02:40:00.319Z,97395.88
2023-08-29T02:42:35.196Z,97390.78
2023-08-29T02:45:07.960Z,97396.19
2023-08-29T02:47:38.750Z,97400.50
2023-08-29T02:50:07.931Z,97402.91
2023-08-29T02:52:37.026Z,97394.31
2023-08-29T02:55:07.752Z,97397.75
2023-08-29T02:57:37.332Z,97398.25
2023-08-29T03:00:07.272Z,97399.88
2023-08-29T03:02:36.341Z,97391.03
2023-08-29T03:05:04.304Z,97392.03
2023-08-29T03:07:34.769Z,97377.84
2023-08-29T03:10:02.469Z,97374.63
2023-08-29T03:12:34.278Z,97368.34
2023-08-29T03:15:02.397Z,97366.16
2023-08-29T03:17:31.121Z,97369.16
2023-08-29T03:20:01.868Z,97375.97
2023-08-29T03:22:31.327Z,97371.34
2023-08-29T03:25:00.191Z,97373.19
2023-08-29T03:27:30.065Z,97375.31
2023-08-29T03:30:00.969Z,97359.75
2023-08-29T03:32:29.887Z,97365.75
2023-08-29T03:35:00.061Z,97361.38
2023-08-29T03:37:29.254Z,97346.34
2023-08-29T03:40:01.281Z,97351.44
2023-08-29T03:42:32.110Z,97354.41
2023-08-29T03:45:00.085Z,97364.41
2023-08-29T03:47:28.106Z,97361.50
2023-08-29T03:49:56.089Z,97360.09
2023-08-29T03:52:31.288Z,97354.41
2023-08-29T03:55:00.977Z,97356.34
2023-08-29T03:57:30.546Z,97356.41
2023-08-29T04:00:08.240Z,97367.34
2023-08-29T04:02:47.140Z,97359.22
2023-08-29T04:05:16.319Z,97361.13
2023-08-29T04:07:45.850Z,97364.34
2023-08-29T04:10:14.395Z,97362.47
2023-08-29T04:12:47.202Z,97365.38
2023-08-29T04:15:15.239Z,97367.56
2023-08-29T04:17:46.354Z,97367.88
2023-08-29T04:20:17.669Z,97356.28
2023-08-29T04:22:49.055Z,97360.31
2023-08-29T04:25:17.598Z,97358.16
2023-08-29T04:27:49.212Z,97348.81
2023-08-29T04:30:17.536Z,97348.22
2023-08-29T04:32:46.076Z,97355.19
2023-08-29T04:35:16.183Z,97349.25
2023-08-29T04:37:48.534Z,97353.53
2023-08-29T04:40:18.127Z,97349.00
2023-08-29T04:42:47.216Z,97343.63
2023-08-29T04:45:18.081Z,97345.78
2023-08-29T04:47:46.185Z,97349.84
2023-08-29T04:50:15.682Z,97340.75
2023-08-29T04:52:44.508Z,97338.28
2023-08-29T04:55:12.026Z,97334.84
2023-08-29T04:57:41.060Z,97331.59
2023-08-29T05:00:14.123Z,97329.38
2023-08-29T05:02:43.734Z,97330.19
2023-08-29T05:05:15.942Z,97337.75
2023-08-29T05:07:47.230Z,97342.81
2023-08-29T05:10:17.845Z,97348.53
2023-08-29T05:12:45.811Z,97353.94
2023-08-29T05:15:15.148Z,97357.97
2023-08-29T05:17:44.333Z,97351.53
2023-08-29T05:20:12.683Z,97354.22
2023-08-29T05:22:43.471Z,97360.97
2023-08-29T05:25:12.215Z,97367.19
2023-08-29T05:27:42.489Z,97368.81
2023-08-29T05:30:15.388Z,97365.28
2023-08-29T05:32:46.192Z,97368.28
2023-08-29T05:35:15.996Z,97371.53
2023-08-29T05:37:47.265Z,97370.69
2023-08-29T05:40:16.078Z,97372.84
2023-08-29T05:42:44.766Z,97370.44
2023-08-29T05:45:14.874Z,97374.47
2023-08-29T05:47:43.894Z,97370.69
2023-08-29T05:50:16.082Z,97372.06
2023-08-29T05:52:46.474Z,97370.69
2023-08-29T05:55:16.945Z,97366.91
2023-08-29T05:57:53.062Z,97371.78
2023-08-29T06:00:22.958Z,97371.78
2023-08-29T06:02:53.298Z,97378.53
2023-08-29T06:05:21.215Z,97374.75
2023-08-29T06:07:49.641Z,97382.84
2023-08-29T06:10:17.284Z,97378.47
2023-08-29T06:12:48.502Z,97387.38
2023-08-29T06:15:17.101Z,97387.13
2023-08-29T06:17:46.391Z,97382.28
2023-08-29T06:20:15.446Z,97378.47
2023-08-29T06:22:45.532Z,97389.34
2023-08-29T06:25:13.599Z,97382.94
2023-08-29T06:27:41.420Z,97389.56
2023-08-29T06:30:14.709Z,97388.22
2023-08-29T06:32:45.364Z,97386.91
2023-08-29T06:35:14.150Z,97389.03
2023-08-29T06:37:42.444Z,97386.56
2023-08-29T06:40:11.855Z,97386.34
2023-08-29T06:42:42.103Z,97397.34
2023-08-29T06:45:14.673Z,97397.91
2023-08-29T06:47:44.216Z,97397.13
2023-08-29T06:50:13.686Z,97395.03
2023-08-29T06:52:42.981Z,97401.75
2023-08-29T06:55:13.186Z,97400.03
2023-08-29T06:57:41.365Z,97406.19
2023-08-29T07:00:14.337Z,97407.81
2023-08-29T07:02:42.313Z,97402.19
2023-08-29T07:05:11.272Z,97409.97
2023-08-29T07:07:42.013Z,97415.66
2023-08-29T07:10:12.246Z,97420.50
2023-08-29T07:12:43.472Z,97417.13
2023-08-29T07:15:14.060Z,97431.63
2023-08-29T07:17:46.261Z,97426.03
2023-08-29T07:20:17.127Z,97420.63
2023-08-29T07:22:45.260Z,97434.69
2023-08-29T07:25:14.557Z,97431.63
2023-08-29T07:27:43.686Z,97438.34
2023-08-29T07:30:16.358Z,97437.25
2023-08-29T07:32:45.402Z,97432.94
2023-08-29T07:35:15.665Z,97439.41
2023-08-29T07:37:44.441Z,97426.50
2023-08-29T07:40:12.673Z,97432.94
2023-08-29T07:42:40.454Z,97436.53
2023-08-29T07:45:08.937Z,97438.97
2023-08-29T07:47:38.333Z,97442.25
2023-08-29T07:50:07.149Z,97451.13
2023-08-29T07:52:37.097Z,97449.22
2023-08-29T07:55:08.836Z,97460.31
2023-08-29T07:57:40.322Z,97462.22
2023-08-29T08:00:12.183Z,97447.03
2023-08-29T08:02:42.823Z,97459.97
2023-08-29T08:05:17.346Z,97456.81
2023-08-29T08:07:50.461Z,97454.41
2023-08-29T08:10:19.702Z,97467.03
2023-08-29T08:12:49.463Z,97458.16
2023-08-29T08:15:17.863Z,97451.06
2023-08-29T08:17:55.489Z,97455.97
2023-08-29T08:20:26.047Z,97459.09
2023-08-29T08:22:56.149Z,97462.16
2023-08-29T08:25:24.934Z,97458.94
2023-08-29T08:27:55.016Z,97465.72
2023-08-29T08:30:23.468Z,97461.97
2023-08-29T08:32:52.426Z,97467.91
2023-08-29T08:35:21.563Z,97466.00
2023-08-29T08:37:51.754Z,97463.88
2023-08-29T08:40:22.499Z,97462.50
2023-08-29T08:42:52.944Z,97461.44
2023-08-29T08:45:24.092Z,97464.13
2023-08-29T08:47:52.446Z,97466.84
2023-08-29T08:50:25.516Z,97475.19
2023-08-29T08:52:58.599Z,97474.94
2023-08-29T08:55:30.357Z,97477.34
2023-08-29T08:57:59.932Z,97478.97
2023-08-29T09:00:31.004Z,97486.78
2023-08-29T09:02:59.651Z,97485.13
2023-08-29T09:05:30.267Z,97476.50
2023-08-29T09:08:05.312Z,97485.69
2023-08-29T09:10:34.952Z,97484.09
2023-08-29T09:13:04.913Z,97478.41
2023-08-29T09:15:37.281Z,97483.53
2023-08-29T09:18:07.751Z,97480.50
2023-08-29T09:20:35.997Z,97487.81
2023-08-29T09:23:21.190Z,97492.44
2023-08-29T09:26:05.961Z,97493.53
2023-08-29T09:28:34.294Z,97496.50
2023-08-29T09:31:10.975Z,97501.63
2023-08-29T09:33:42.905Z,97493.56
2023-08-29T09:36:17.659Z,97491.94
2023-08-29T09:38:48.953Z,97497.84
2023-08-29T09:41:19.644Z,97493.00
2023-08-29T09:43:53.916Z,97500.84
2023-08-29T09:46:30.810Z,97497.59
2023-08-29T09:48:59.179Z,97505.66
2023-08-29T09:51:30.284Z,97503.78
2023-08-29T09:54:00.764Z,97500.81
2023-08-29T09:56:31.647Z,97497.56
2023-08-29T09:59:02.299Z,97500.56
2023-08-29T10:01:33.039Z,97501.66
2023-08-29T10:04:07.416Z,97495.44
2023-08-29T10:06:38.560Z,97498.69
2023-08-29T10:09:11.541Z,97495.44
2023-08-29T10:11:53.506Z,97489.50
2023-08-29T10:14:29.014Z,97494.38
2023-08-29T10:17:00.077Z,97502.75
2023-08-29T10:19:31.051Z,97502.47
2023-08-29T10:22:05.615Z,97508.13
2023-08-29T10:24:35.938Z,97496.00
2023-08-29T10:27:07.208Z,97500.88
2023-08-29T10:29:39.683Z,97504.84
2023-08-29T10:32:11.342Z,97501.09
2023-08-29T10:34:44.261Z,97506.75
2023-08-29T10:37:23.574Z,97515.97
2023-08-29T10:39:53.590Z,97506.50
2023-08-29T10:42:24.783Z,97514.00
2023-08-29T10:44:53.479Z,97509.22
2023-08-29T10:47:34.636Z,97506.50
2023-08-29T10:50:07.805Z,97510.59
2023-08-29T10:52:43.998Z,97508.66
2023-08-29T10:55:24.552Z,97507.06
2023-08-29T10:57:56.060Z,97498.66
2023-08-29T11:00:52.637Z,97494.09
2023-08-29T11:03:49.880Z,97503.31
2023-08-29T11:06:20.089Z,97498.41
2023-08-29T11:08:48.295Z,97494.34
2023-08-29T11:11:18.935Z,97496.53
2023-08-29T11:14:08.595Z,97485.47
2023-08-29T11:16:38.465Z,97490.84
2023-08-29T11:19:15.857Z,97480.59
2023-08-29T11:21:51.350Z,97487.09
2023-08-29T11:24:22.566Z,97489.75
2023-08-29T11:26:51.593Z,97493.66
2023-08-29T11:29:19.781Z,97490.22
2023-08-29T11:31:48.582Z,97487.66
2023-08-29T11:34:23.106Z,97488.66
2023-08-29T11:36:54.224Z,97486.50
2023-08-29T11:39:23.762Z,97486.19
2023-08-29T11:42:06.355Z,97490.13
2023-08-29T11:45:08.421Z,97483.19
2023-08-29T11:47:30.773Z,97482.91
2023-08-29T11:50:00.561Z,97481.03
2023-08-29T11:52:32.966Z,97483.50
2023-08-29T11:55:05.356Z,97488.16
2023-08-29T11:57:33.897Z,97490.66
2023-08-29T12:00:01.831Z,97492.59
2023-08-29T12:02:34.703Z,97491.09
2023-08-29T12:05:11.680Z,97496.31
2023-08-29T12:07:39.664Z,97495.06
2023-08-29T12:10:17.357Z,97496.13
2023-08-29T12:13:14.586Z,97495.84
2023-08-29T12:15:47.007Z,97505.34
2023-08-29T12:18:24.969Z,97505.03
2023-08-29T12:21:09.939Z,97506.44
2023-08-29T12:23:38.256Z,97505.22
2023-08-29T12:26:07.026Z,97506.53
2023-08-29T12:28:35.246Z,97504.03
2023-08-29T12:31:03.791Z,97511.94
2023-08-29T12:33:32.430Z,97512.09
2023-08-29T12:36:01.118Z,97512.41
2023-08-29T12:38:33.779Z,97510.56
2023-08-29T12:41:02.264Z,97505.19
2023-08-29T12:43:29.846Z,97512.59
2023-08-29T12:46:00.616Z,97511.06
2023-08-29T12:48:29.058Z,97513.50
2023-08-29T12:50:58.725Z,97510.38
2023-08-29T12:53:26.899Z,97520.94
2023-08-29T12:55:56.848Z,97511.84
2023-08-29T12:58:24.949Z,97509.69
2023-08-29T13:00:54.073Z,97504.78
2023-08-29T13:03:23.619Z,97504.91
2023-08-29T13:05:54.101Z,97496.28
2023-08-29T13:08:22.212Z,97503.91
2023-08-29T13:10:51.565Z,97494.47
2023-08-29T13:13:19.808Z,97498.03
2023-08-29T13:15:51.664Z,97492.91
2023-08-29T13:18:19.902Z,97485.34
2023-08-29T13:20:49.288Z,97489.25
2023-08-29T13:23:17.036Z,97486.19
2023-08-29T13:25:45.115Z,97479.53
2023-08-29T13:28:13.312Z,97482.66
2023-08-29T13:30:41.280Z,97482.63
2023-08-29T13:33:09.377Z,97484.53
2023-08-29T13:35:39.302Z,97476.34
2023-08-29T13:38:08.263Z,97480.91
2023-08-29T13:40:44.046Z,97479.25
2023-08-29T13:43:14.817Z,97480.38
2023-08-29T13:45:43.260Z,97473.13
2023-08-29T13:48:17.589Z,97473.34
2023-08-29T13:50:48.544Z,97469.41
2023-08-29T13:53:18.793Z,97467.84
2023-08-29T13:55:48.452Z,97468.25
2023-08-29T13:58:20.928Z,97467.38
2023-08-29T14:00:52.839Z,97471.97
2023-08-29T14:03:33.355Z,97470.00
2023-08-29T14:06:07.349Z,97468.88
2023-08-29T14:11:20.294Z,97468.56
2023-08-29T14:13:48.051Z,97474.47
2023-08-29T14:16:18.461Z,97462.03
2023-08-29T14:18:47.334Z,97464.66
2023-08-29T14:21:15.258Z,97469.88
2023-08-29T14:23:43.583Z,97466.63
2023-08-29T14:26:15.407Z,97470.53
2023-08-29T14:28:43.308Z,97474.19
2023-08-29T14:31:10.950Z,97468.94
2023-08-29T14:33:40.026Z,97465.25
2023-08-29T14:36:09.154Z,97467.13
2023-08-29T14:38:36.907Z,97464.06
2023-08-29T14:41:15.476Z,97466.22
2023-08-29T14:43:43.167Z,97469.13
2023-08-29T14:46:10.741Z,97462.69
2023-08-29T14:48:39.500Z,97464.13
2023-08-29T14:51:08.225Z,97470.03
2023-08-29T14:53:40.190Z,97467.81
2023-08-29T14:56:10.785Z,97464.75
2023-08-29T14:58:47.905Z,97469.78
2023-08-29T15:01:15.505Z,97475.44
2023-08-29T15:03:47.832Z,97469.66
2023-08-29T15:06:17.754Z,97471.84
2023-08-29T15:08:49.293Z,97476.03
2023-08-29T15:11:21.519Z,97473.31
2023-08-29T15:13:49.136Z,97488.22
2023-08-29T15:16:17.315Z,97484.00
2023-08-29T15:18:49.298Z,97490.06
2023-08-29T15:21:20.306Z,97486.25
2023-08-29T15:23:48.199Z,97483.03
2023-08-29T15:26:17.806Z,97487.75
2023-08-29T15:28:45.811Z,97485.16
2023-08-29T15:31:13.461Z,97486.31
2023-08-29T15:33:43.652Z,97478.59
2023-08-29T15:36:13.825Z,97490.47
2023-08-29T15:38:41.704Z,97493.91
2023-08-29T15:41:09.728Z,97490.56
2023-08-29T15:43:37.669Z,97490.41
2023-08-29T15:46:11.684Z,97491.09
2023-08-29T15:48:40.817Z,97494.22
2023-08-29T15:51:14.460Z,97489.31
2023-08-29T15:53:51.359Z,97492.53
2023-08-29T15:56:22.008Z,97495.50
2023-08-29T15:58:52.241Z,97487.00
2023-08-29T16:01:22.858Z,97488.50
2023-08-29T16:03:52.228Z,97483.13
2023-08-29T16:06:22.577Z,97482.66
2023-08-29T16:08:51.157Z,97480.50
2023-08-29T16:11:23.640Z,97485.94
2023-08-29T16:13:54.457Z,97491.53
2023-08-29T16:16:22.254Z,97492.13
2023-08-29T16:18:49.779Z,97497.59
2023-08-29T16:21:18.049Z,97500.41
2023-08-29T16:23:46.650Z,97496.13
2023-08-29T16:26:19.083Z,97501.47
2023-08-29T16:28:48.165Z,97504.38
2023-08-29T16:31:20.014Z,97497.53
2023-08-29T16:33:48.042Z,97500.91
2023-08-29T16:36:17.137Z,97500.97
2023-08-29T16:38:47.118Z,97506.03
2023-08-29T16:41:18.846Z,97499.44
2023-08-29T16:43:49.343Z,97498.31
2023-08-29T16:46:17.938Z,97514.97
2023-08-29T16:48:46.506Z,97512.19
2023-08-29T16:51:17.097Z,97512.31
2023-08-29T16:53:46.927Z,97512.25
2023-08-29T16:56:16.077Z,97516.25
2023-08-29T16:58:51.193Z,97519.38
2023-08-29T17:01:20.596Z,97513.41
2023-08-29T17:03:49.146Z,97518.72
2023-08-29T17:06:16.746Z,97514.97
2023-08-29T17:08:44.416Z,97518.66
2023-08-29T17:11:12.335Z,97510.28
2023-08-29T17:13:42.308Z,97512.38
2023-08-29T17:16:11.318Z,97510.66
2023-08-29T17:18:42.144Z,97519.94
2023-08-29T17:21:11.230Z,97520.44
2023-08-29T17:23:39.963Z,97519.31
2023-08-29T17:26:10.587Z,97527.72
2023-08-29T17:28:41.230Z,97526.91
2023-08-29T17:31:13.081Z,97534.03
2023-08-29T17:33:45.502Z,97535.63
2023-08-29T17:36:16.834Z,97533.13
2023-08-29T17:38:46.945Z,97531.53
2023-08-29T17:41:15.737Z,97525.38
2023-08-29T17:43:48.256Z,97536.25
2023-08-29T17:46:17.006Z,97537.66
2023-08-29T17:48:45.882Z,97536.00
2023-08-29T17:51:14.795Z,97538.41
2023-08-29T17:53:43.425Z,97539.09
2023-08-29T17:56:12.014Z,97536.66
2023-08-29T17:58:41.251Z,97542.06
2023-08-29T18:01:10.405Z,97538.59
2023-08-29T18:03:39.769Z,97543.53
2023-08-29T18:06:22.688Z,97545.91
2023-08-29T18:08:55.157Z,97542.34
2023-08-29T18:11:25.279Z,97548.34
2023-08-29T18:13:54.274Z,97551.63
2023-08-29T18:16:24.174Z,97547.97
2023-08-29T18:18:53.264Z,97549.31
2023-08-29T18:21:21.384Z,97549.03
2023-08-29T18:23:52.748Z,97553.19
2023-08-29T18:26:23.524Z,97554.59
2023-08-29T18:28:58.575Z,97553.41
2023-08-29T18:34:11.890Z,97553.09
2023-08-29T18:36:45.794Z,97552.28
2023-08-29T18:39:13.579Z,97558.66
2023-08-29T18:41:45.853Z,97559.22
2023-08-29T18:44:13.338Z,97567.59
2023-08-29T18:46:42.247Z,97575.66
2023-08-29T18:49:12.184Z,97568.69
2023-08-29T18:51:40.775Z,97574.63
2023-08-29T18:54:08.590Z,97582.25
2023-08-29T18:56:36.454Z,97570.34
2023-08-29T18:59:05.338Z,97570.34
2023-08-29T19:01:33.888Z,97574.94
2023-08-29T19:04:03.709Z,97568.97
2023-08-29T19:06:37.636Z,97565.50
2023-08-29T19:09:05.182Z,97573.38
2023-08-29T19:11:33.808Z,97570.94
2023-08-29T19:14:02.239Z,97566.91
2023-08-29T19:16:30.749Z,97572.59
2023-08-29T19:18:59.689Z,97567.50
2023-08-29T19:21:28.705Z,97575.00
2023-08-29T19:23:59.565Z,97567.19
2023-08-29T19:26:29.685Z,97568.00
2023-08-29T19:28:58.088Z,97565.31
2023-08-29T19:31:26.004Z,97569.63
2023-08-29T19:34:05.978Z,97566.13
2023-08-29T19:36:36.117Z,97566.94
2023-08-29T19:39:16.973Z,97557.75
2023-08-29T19:41:46.205Z,97563.44
2023-08-29T19:44:18.329Z,97563.41
2023-08-29T19:46:47.875Z,97559.66
2023-08-29T19:49:16.116Z,97555.34
2023-08-29T19:51:45.879Z,97563.75
2023-08-29T19:54:14.485Z,97564.81
2023-08-29T19:56:43.824Z,97560.47
2023-08-29T19:59:11.815Z,97559.69
2023-08-29T20:01:39.624Z,97561.84
2023-08-29T20:04:07.873Z,97565.66
2023-08-29T20:06:39.015Z,97565.91
2023-08-29T20:09:06.780Z,97569.41
2023-08-29T20:11:34.642Z,97567.25
2023-08-29T20:14:03.980Z,97567.53
2023-08-29T20:16:34.730Z,97567.50
2023-08-29T20:22:00.586Z,97570.41
2023-08-29T20:24:31.492Z,97564.25
2023-08-29T20:27:00.157Z,97572.09
2023-08-29T20:29:32.390Z,97564.81
2023-08-29T20:32:08.220Z,97564.81
2023-08-29T20:34:42.041Z,97557.47
2023-08-29T20:37:11.562Z,97561.56
2023-08-29T20:39:41.985Z,97563.44
2023-08-29T20:42:17.405Z,97562.94
2023-08-29T20:44:48.388Z,97558.88
2023-08-29T20:47:25.965Z,97556.13
2023-08-29T20:49:54.626Z,97551.56
2023-08-29T20:52:27.631Z,97560.22
2023-08-29T20:54:57.054Z,97560.22
2023-08-29T20:57:24.957Z,97557.22
2023-08-29T20:59:52.898Z,97560.78
2023-08-29T21:02:20.616Z,97562.13
2023-08-29T21:04:52.004Z,97564.31
2023-08-29T21:07:20.307Z,97561.59
2023-08-29T21:09:52.199Z,97560.25
2023-08-29T21:12:23.875Z,97558.34
2023-08-29T21:14:52.359Z,97556.75
2023-08-29T21:17:23.567Z,97549.72
2023-08-29T21:19:52.750Z,97551.34
2023-08-29T21:22:20.872Z,97551.88
2023-08-29T21:24:53.047Z,97553.25
2023-08-29T21:27:23.979Z,97547.00
2023-08-29T21:29:52.296Z,97553.50
2023-08-29T21:32:21.023Z,97551.88
2023-08-29T21:34:51.726Z,97547.56
2023-08-29T21:37:22.126Z,97556.75
2023-08-29T21:39:51.471Z,97564.03
2023-08-29T21:42:21.574Z,97562.66
2023-08-29T21:44:54.824Z,97562.16
2023-08-29T21:47:23.922Z,97564.03
2023-08-29T21:49:54.225Z,97558.91
2023-08-29T21:52:26.728Z,97564.53
2023-08-29T21:54:54.317Z,97562.44
2023-08-29T21:57:23.871Z,97559.72
2023-08-29T21:59:55.596Z,97555.91
2023-08-29T22:02:26.019Z,97553.75
2023-08-29T22:04:55.844Z,97554.28
2023-08-29T22:07:25.101Z,97547.81
2023-08-29T22:09:55.277Z,97543.47
2023-08-29T22:12:24.828Z,97553.47
2023-08-29T22:14:56.929Z,97545.91
2023-08-29T22:17:25.080Z,97549.97
2023-08-29T22:19:54.772Z,97542.09
2023-08-29T22:22:23.550Z,97538.88
2023-08-29T22:24:51.388Z,97537.00
2023-08-29T22:27:20.363Z,97536.47
2023-08-29T22:29:49.659Z,97539.41
2023-08-29T22:32:19.334Z,97531.03
2023-08-29T22:34:49.153Z,97536.19
2023-08-29T22:37:17.396Z,97536.19
2023-08-29T22:39:48.628Z,97543.19
2023-08-29T22:42:20.618Z,97535.91
2023-08-29T22:44:48.478Z,97534.28
2023-08-29T22:47:17.713Z,97533.75
2023-08-29T22:49:49.137Z,97533.50
2023-08-29T22:52:25.846Z,97538.38
2023-08-29T22:54:57.064Z,97532.97
2023-08-29T22:57:24.890Z,97541.03
2023-08-29T22:59:53.272Z,97538.59
2023-08-29T23:02:24.492Z,97537.28
2023-08-29T23:05:11.805Z,97545.63
2023-08-29T23:07:41.183Z,97551.56
2023-08-29T23:10:14.462Z,97543.19
2023-08-29T23:12:45.584Z,97542.63
2023-08-29T23:15:16.563Z,97538.31
2023-08-29T23:17:47.177Z,97540.72
2023-08-29T23:20:16.697Z,97540.72
2023-08-29T23:22:45.899Z,97540.72
2023-08-29T23:25:17.351Z,97541.00
2023-08-29T23:27:47.097Z,97536.66
2023-08-29T23:30:19.843Z,97532.34
2023-08-29T23:32:49.671Z,97528.31
2023-08-29T23:35:21.056Z,97539.13
2023-08-29T23:37:49.888Z,97529.66
2023-08-29T23:40:26.777Z,97530.47
2023-08-29T23:42:54.752Z,97531.81
2023-08-29T23:45:22.835Z,97524.00
2023-08-29T23:47:50.444Z,97520.97
2023-08-29T23:50:18.943Z,97519.34
2023-08-29T23:52:46.794Z,97528.53
2023-08-29T23:55:15.814Z,97525.81
2023-08-29T23:57:45.055Z,97511.25
